Time;durP1;ratioP1;P1;durP2;ratioP2;P2;SDS_P1;SDS_P2;PMS_P1;PMS_P2;Temp;Humidity;BMP_temperature;BMP_pressure;BME280_temperature;BME280_humidity;BME280_pressure;Samples;Min_cycle;Max_cycle;Signal;HPM_P1;HPM_P2
2022/06/27 00:00:06;;;;;;;;;;;;;;;;;;1052714;28;4334;-51
2022/06/27 00:00:41;;;;;;;;;;;;;;;;;;1053609;28;2773;-49
2022/06/27 00:01:17;;;;;;;;;;;;;;;;;;1053264;28;3788;-52
2022/06/27 00:01:47;;;;;;;;;;;;;;;;;;1052883;28;2795;-49
2022/06/27 00:02:18;;;;;;;;;;;;;;;;;;1052029;28;3607;-49
2022/06/27 00:02:48;;;;;;;;;;;;;;;;;;1054468;28;1832;-47
2022/06/27 00:03:18;;;;;;;;;;;;;;;;;;1054330;28;2115;-49
2022/06/27 00:03:48;;;;;;;;;;;;;;;;;;1049800;28;1798;-50
2022/06/27 00:04:19;;;;;;;;;;;;;;;;;;1047195;28;2958;-51
2022/06/27 00:04:49;;;;;;;;;;;;;;;;;;1049169;28;3062;-50
2022/06/27 00:05:19;;;;;;;;;;;;;;;;;;1048234;28;1846;-49
2022/06/27 00:05:50;;;;;;;;;;;;;;;;;;1054329;28;1833;-51
2022/06/27 00:06:20;;;;;;;;;;;;;;;;;;1051235;28;3389;-51
2022/06/27 00:06:50;;;;;;;;;;;;;;;;;;1053631;28;3549;-47
2022/06/27 00:07:21;;;;;;;;;;;;;;;;;;1051252;28;3705;-51
2022/06/27 00:07:51;;;;;;;;;;;;;;;;;;1053048;28;3039;-52
2022/06/27 00:08:21;;;;;;;;;;;;;;;;;;1052162;28;5183;-51
2022/06/27 00:08:52;;;;;;;;;;;;;;;;;;1050026;28;1649;-50
2022/06/27 00:09:22;;;;;;;;;;;;;;;;;;1049374;28;1700;-49
2022/06/27 00:09:52;;;;;;;;;;;;;;;;;;1049181;28;3531;-50
2022/06/27 00:10:23;;;;;;;;;;;;;;;;;;1043658;28;2454;-52
2022/06/27 00:10:53;;;;;;;;;;;;;;;;;;1049635;28;1828;-49
2022/06/27 00:11:23;;;;;;;;;;;;;;;;;;1047504;28;3880;-49
2022/06/27 00:11:55;;;;;;;;;;;;;;;;;;1050055;28;1430;-48
2022/06/27 00:12:25;;;;;;;;;;;;;;;;;;1047899;28;3632;-50
2022/06/27 00:13:03;;;;;;;;;;;;;;;;;;1049000;28;1700;-51
2022/06/27 00:13:40;;;;;;;;;;;;;;;;;;1044598;28;2704;-51
2022/06/27 00:14:17;;;;;;;;;;;;;;;;;;1044823;28;3118;-52
2022/06/27 00:14:47;;;;;;;;;;;;;;;;;;1044219;28;1753;-48
2022/06/27 00:15:18;;;;;;;;;;;;;;;;;;1042949;28;3057;-52
2022/06/27 00:15:48;;;;;;;;;;;;;;;;;;1044854;28;2972;-51
2022/06/27 00:16:18;;;;;;;;;;;;;;;;;;1045067;28;1764;-50
2022/06/27 00:16:48;;;;;;;;;;;;;;;;;;1043862;28;4023;-49
2022/06/27 00:17:19;;;;;;;;;;;;;;;;;;1045058;28;2931;-49
2022/06/27 00:17:49;;;;;;;;;;;;;;;;;;1044646;28;1621;-50
2022/06/27 00:18:19;;;;;;;;;;;;;;;;;;1045022;28;1668;-48
2022/06/27 00:18:49;;;;;;;;;;;;;;;;;;1044916;28;1786;-51
2022/06/27 00:19:20;;;;;;;;;;;;;;;;;;1044879;28;2157;-47
2022/06/27 00:19:50;;;;;;;;;;;;;;;;;;1044877;28;2751;-48
2022/06/27 00:20:20;;;;;;;;;;;;;;;;;;1044685;28;1306;-49
2022/06/27 00:20:51;;;;;;;;;;;;;;;;;;1045076;28;1722;-51
2022/06/27 00:21:21;;;;;;;;;;;;;;;;;;1043822;28;2702;-47
2022/06/27 00:21:52;;;;;;;;;;;;;;;;;;1043513;28;3820;-48
2022/06/27 00:22:22;;;;;;;;;;;;;;;;;;1043447;28;3465;-52
2022/06/27 00:22:52;;;;;;;;;;;;;;;;;;1038423;28;3269;-47
2022/06/27 00:23:23;;;;;;;;;;;;;;;;;;1038332;28;3891;-49
2022/06/27 00:23:54;;;;;;;;;;;;;;;;;;1040475;28;3171;-50
2022/06/27 00:24:24;;;;;;;;;;;;;;;;;;1043365;28;2656;-48
2022/06/27 00:24:54;;;;;;;;;;;;;;;;;;1046203;28;1710;-49
2022/06/27 00:25:25;;;;;;;;;;;;;;;;;;1043492;28;3121;-53
2022/06/27 00:25:55;;;;;;;;;;;;;;;;;;1045102;28;1545;-52
2022/06/27 00:26:25;;;;;;;;;;;;;;;;;;1043013;28;3039;-51
2022/06/27 00:26:56;;;;;;;;;;;;;;;;;;1043202;28;3764;-49
2022/06/27 00:27:26;;;;;;;;;;;;;;;;;;1042858;28;3908;-48
2022/06/27 00:27:56;;;;;;;;;;;;;;;;;;1044851;28;3743;-49
2022/06/27 00:28:27;;;;;;;;;;;;;;;;;;1044532;28;1743;-47
2022/06/27 00:28:57;;;;;;;;;;;;;;;;;;1043573;28;3892;-47
2022/06/27 00:29:27;;;;;;;;;;;;;;;;;;1044044;28;2829;-49
2022/06/27 00:29:58;;;;;;;;;;;;;;;;;;1044404;28;3281;-52
2022/06/27 00:30:28;;;;;;;;;;;;;;;;;;1044192;28;2273;-50
2022/06/27 00:30:58;;;;;;;;;;;;;;;;;;1043111;28;3198;-54
2022/06/27 00:31:28;;;;;;;;;;;;;;;;;;1044258;28;3546;-52
2022/06/27 00:31:59;;;;;;;;;;;;;;;;;;1044561;28;2077;-48
2022/06/27 00:32:29;;;;;;;;;;;;;;;;;;1043065;28;3637;-49
2022/06/27 00:32:59;;;;;;;;;;;;;;;;;;1044249;28;3887;-51
2022/06/27 00:33:30;;;;;;;;;;;;;;;;;;1044805;28;2618;-50
2022/06/27 00:34:00;;;;;;;;;;;;;;;;;;1044044;28;3760;-51
2022/06/27 00:34:31;;;;;;;;;;;;;;;;;;1045350;28;2064;-49
2022/06/27 00:35:02;;;;;;;;;;;;;;;;;;1042710;28;3794;-47
2022/06/27 00:35:32;;;;;;;;;;;;;;;;;;1042072;28;1589;-51
2022/06/27 00:36:03;;;;;;;;;;;;;;;;;;1041609;28;1694;-50
2022/06/27 00:36:33;;;;;;;;;;;;;;;;;;1044598;28;2342;-53
2022/06/27 00:37:04;;;;;;;;;;;;;;;;;;1039000;28;3856;-51
2022/06/27 00:37:34;;;;;;;;;;;;;;;;;;1041083;28;1688;-49
2022/06/27 00:38:05;;;;;;;;;;;;;;;;;;1039996;28;3151;-49
2022/06/27 00:38:35;;;;;;;;;;;;;;;;;;1040874;28;3293;-51
2022/06/27 00:39:05;;;;;;;;;;;;;;;;;;1040837;28;1923;-49
2022/06/27 00:39:35;;;;;;;;;;;;;;;;;;1042861;28;3695;-49
2022/06/27 00:40:06;;;;;;;;;;;;;;;;;;1044358;28;3332;-49
2022/06/27 00:40:37;;;;;;;;;;;;;;;;;;1044881;28;2063;-47
2022/06/27 00:41:07;;;;;;;;;;;;;;;;;;1045387;28;1591;-49
2022/06/27 00:41:37;;;;;;;;;;;;;;;;;;1044302;28;2715;-52
2022/06/27 00:42:08;;;;;;;;;;;;;;;;;;1045050;28;4030;-48
2022/06/27 00:42:38;;;;;;;;;;;;;;;;;;1044566;28;3788;-47
2022/06/27 00:43:08;;;;;;;;;;;;;;;;;;1044247;28;3496;-50
2022/06/27 00:43:42;;;;;;;;;;;;;;;;;;1044724;28;2725;-51
2022/06/27 00:44:28;;;;;;;;;;;;;;;;;;1044646;28;1663;-47
2022/06/27 00:44:58;;;;;;;;;;;;;;;;;;1042203;28;2851;-50
2022/06/27 00:45:28;;;;;;;;;;;;;;;;;;1042085;28;2833;-49
2022/06/27 00:45:59;;;;;;;;;;;;;;;;;;1039531;28;3434;-52
2022/06/27 00:46:29;;;;;;;;;;;;;;;;;;1037979;28;2685;-51
2022/06/27 00:46:59;;;;;;;;;;;;;;;;;;1044948;28;3222;-48
2022/06/27 00:47:30;;;;;;;;;;;;;;;;;;1044367;28;1723;-51
2022/06/27 00:48:00;;;;;;;;;;;;;;;;;;1045512;28;1917;-49
2022/06/27 00:48:30;;;;;;;;;;;;;;;;;;1044791;28;2101;-49
2022/06/27 00:49:01;;;;;;;;;;;;;;;;;;1045692;28;1665;-47
2022/06/27 00:49:31;;;;;;;;;;;;;;;;;;1044444;28;2195;-49
2022/06/27 00:50:02;;;;;;;;;;;;;;;;;;1046250;28;1733;-52
2022/06/27 00:50:33;;;;;;;;;;;;;;;;;;1044881;28;2107;-48
2022/06/27 00:51:03;;;;;;;;;;;;;;;;;;1045575;28;1610;-51
2022/06/27 00:51:34;;;;;;;;;;;;;;;;;;1038742;28;3705;-51
2022/06/27 00:52:05;;;;;;;;;;;;;;;;;;1041626;28;3929;-49
2022/06/27 00:52:36;;;;;;;;;;;;;;;;;;1040769;28;3663;-50
2022/06/27 00:53:07;;;;;;;;;;;;;;;;;;1044002;28;3752;-48
2022/06/27 00:53:38;;;;;;;;;;;;;;;;;;1042989;28;3876;-50
2022/06/27 00:54:08;;;;;;;;;;;;;;;;;;1044990;28;2166;-50
2022/06/27 00:54:40;;;;;;;;;;;;;;;;;;1044069;28;1820;-50
2022/06/27 00:55:11;;;;;;;;;;;;;;;;;;1043945;28;3172;-47
2022/06/27 00:55:41;;;;;;;;;;;;;;;;;;1042384;28;3720;-47
2022/06/27 00:56:12;;;;;;;;;;;;;;;;;;1044844;28;3145;-49
2022/06/27 00:56:42;;;;;;;;;;;;;;;;;;1044464;28;3589;-50
2022/06/27 00:57:13;;;;;;;;;;;;;;;;;;1044758;28;3878;-50
2022/06/27 00:57:44;;;;;;;;;;;;;;;;;;1044838;28;2139;-50
2022/06/27 00:58:14;;;;;;;;;;;;;;;;;;1046585;28;1906;-48
2022/06/27 00:58:44;;;;;;;;;;;;;;;;;;1046158;28;2012;-49
2022/06/27 00:59:15;;;;;;;;;;;;;;;;;;1045798;28;2122;-53
2022/06/27 00:59:45;;;;;;;;;;;;;;;;;;1044175;28;2866;-53
2022/06/27 01:00:16;;;;;;;;;;;;;;;;;;1046309;28;2606;-51
2022/06/27 01:00:47;;;;;;;;;;;;;;;;;;1045881;28;2082;-51
2022/06/27 01:01:17;;;;;;;;;;;;;;;;;;1045587;28;1969;-48
2022/06/27 01:01:47;;;;;;;;;;;;;;;;;;1044443;28;3235;-48
2022/06/27 01:02:17;;;;;;;;;;;;;;;;;;1045697;28;3255;-51
2022/06/27 01:02:48;;;;;;;;;;;;;;;;;;1045289;28;3688;-47
2022/06/27 01:03:18;;;;;;;;;;;;;;;;;;1045782;28;2412;-49
2022/06/27 01:03:48;;;;;;;;;;;;;;;;;;1045091;28;3014;-51
2022/06/27 01:04:19;;;;;;;;;;;;;;;;;;1045421;28;1657;-53
2022/06/27 01:04:49;;;;;;;;;;;;;;;;;;1046039;28;2033;-47
2022/06/27 01:05:19;;;;;;;;;;;;;;;;;;1045209;28;2859;-50
2022/06/27 01:05:52;;;;;;;;;;;;;;;;;;1046598;28;1667;-49
2022/06/27 01:06:22;;;;;;;;;;;;;;;;;;1044653;28;3750;-49
2022/06/27 01:06:53;;;;;;;;;;;;;;;;;;1046427;28;1850;-48
2022/06/27 01:07:23;;;;;;;;;;;;;;;;;;1036800;28;3161;-49
2022/06/27 01:07:53;;;;;;;;;;;;;;;;;;1037663;28;1647;-46
2022/06/27 01:08:27;;;;;;;;;;;;;;;;;;1042550;28;2060;-49
2022/06/27 01:08:57;;;;;;;;;;;;;;;;;;1041870;28;2212;-48
2022/06/27 01:09:28;;;;;;;;;;;;;;;;;;1044303;28;3386;-50
2022/06/27 01:10:00;;;;;;;;;;;;;;;;;;1044333;28;3218;-52
2022/06/27 01:10:30;;;;;;;;;;;;;;;;;;1043768;28;3604;-49
2022/06/27 01:11:01;;;;;;;;;;;;;;;;;;1044125;28;2956;-49
2022/06/27 01:11:31;;;;;;;;;;;;;;;;;;1045762;28;2809;-49
2022/06/27 01:12:02;;;;;;;;;;;;;;;;;;1044114;28;3118;-52
2022/06/27 01:12:33;;;;;;;;;;;;;;;;;;1044268;28;3536;-49
2022/06/27 01:13:09;;;;;;;;;;;;;;;;;;1044538;28;2042;-48
2022/06/27 01:13:47;;;;;;;;;;;;;;;;;;1048749;28;2980;-48
2022/06/27 01:14:24;;;;;;;;;;;;;;;;;;1049250;28;3742;-50
2022/06/27 01:14:54;;;;;;;;;;;;;;;;;;1051115;28;1791;-51
2022/06/27 01:15:25;;;;;;;;;;;;;;;;;;1049128;28;2265;-48
2022/06/27 01:15:55;;;;;;;;;;;;;;;;;;1047916;28;3127;-48
2022/06/27 01:16:26;;;;;;;;;;;;;;;;;;1044302;28;3754;-52
2022/06/27 01:16:57;;;;;;;;;;;;;;;;;;1045698;28;1533;-50
2022/06/27 01:17:27;;;;;;;;;;;;;;;;;;1042620;28;3158;-48
2022/06/27 01:17:58;;;;;;;;;;;;;;;;;;1050462;28;3158;-49
2022/06/27 01:18:28;;;;;;;;;;;;;;;;;;1053542;28;1628;-51
2022/06/27 01:19:00;;;;;;;;;;;;;;;;;;1050474;28;1564;-49
2022/06/27 01:19:31;;;;;;;;;;;;;;;;;;1049525;28;2759;-49
2022/06/27 01:20:01;;;;;;;;;;;;;;;;;;1050597;28;3273;-52
2022/06/27 01:20:31;;;;;;;;;;;;;;;;;;1050198;28;1709;-52
2022/06/27 01:21:02;;;;;;;;;;;;;;;;;;1049522;28;3788;-50
2022/06/27 01:21:37;;;;;;;;;;;;;;;;;;1047177;28;3080;-49
2022/06/27 01:22:08;;;;;;;;;;;;;;;;;;1047365;28;4360;-51
2022/06/27 01:22:38;;;;;;;;;;;;;;;;;;1048214;28;3767;-48
2022/06/27 01:23:09;;;;;;;;;;;;;;;;;;1049682;28;1935;-53
2022/06/27 01:23:39;;;;;;;;;;;;;;;;;;1050031;28;2231;-48
2022/06/27 01:24:09;;;;;;;;;;;;;;;;;;1045917;28;2418;-49
2022/06/27 01:24:40;;;;;;;;;;;;;;;;;;1045235;28;3364;-50
2022/06/27 01:25:12;;;;;;;;;;;;;;;;;;1045337;28;4056;-50
2022/06/27 01:25:43;;;;;;;;;;;;;;;;;;1049367;28;3261;-53
2022/06/27 01:26:14;;;;;;;;;;;;;;;;;;1050337;28;2175;-52
2022/06/27 01:26:44;;;;;;;;;;;;;;;;;;1050781;28;1862;-51
2022/06/27 01:27:15;;;;;;;;;;;;;;;;;;1049997;28;2959;-49
2022/06/27 01:27:45;;;;;;;;;;;;;;;;;;1047478;28;3353;-50
2022/06/27 01:28:15;;;;;;;;;;;;;;;;;;1048229;28;4306;-50
2022/06/27 01:28:46;;;;;;;;;;;;;;;;;;1049739;28;2016;-49
2022/06/27 01:29:16;;;;;;;;;;;;;;;;;;1050220;28;2880;-48
2022/06/27 01:29:47;;;;;;;;;;;;;;;;;;1049247;28;2111;-50
2022/06/27 01:30:17;;;;;;;;;;;;;;;;;;1049526;28;2226;-47
2022/06/27 01:30:47;;;;;;;;;;;;;;;;;;1050121;28;1946;-49
2022/06/27 01:31:18;;;;;;;;;;;;;;;;;;1049626;28;2565;-47
2022/06/27 01:31:48;;;;;;;;;;;;;;;;;;1050050;28;2796;-49
2022/06/27 01:32:18;;;;;;;;;;;;;;;;;;1049987;28;2035;-50
2022/06/27 01:32:50;;;;;;;;;;;;;;;;;;1048264;28;3833;-51
2022/06/27 01:33:20;;;;;;;;;;;;;;;;;;1049811;28;3165;-48
2022/06/27 01:33:50;;;;;;;;;;;;;;;;;;1048883;28;2631;-49
2022/06/27 01:34:21;;;;;;;;;;;;;;;;;;1050151;28;2651;-48
2022/06/27 01:34:51;;;;;;;;;;;;;;;;;;1048165;28;3335;-49
2022/06/27 01:35:22;;;;;;;;;;;;;;;;;;1047732;28;2435;-46
2022/06/27 01:36:41;;;;;;;;;;;;;;;;;;1049639;28;3475;-50
2022/06/27 01:36:42;;;;;;;;;;;;;;;;;;1049873;28;1651;-49
2022/06/27 01:37:13;;;;;;;;;;;;;;;;;;1051273;28;1502;-49
2022/06/27 01:37:46;;;;;;;;;;;;;;;;;;1050039;28;2887;-48
2022/06/27 01:38:16;;;;;;;;;;;;;;;;;;1049803;28;3065;-46
2022/06/27 01:38:46;;;;;;;;;;;;;;;;;;1049733;28;2972;-50
2022/06/27 01:39:21;;;;;;;;;;;;;;;;;;1050268;28;2664;-50
2022/06/27 01:39:54;;;;;;;;;;;;;;;;;;1050352;28;1673;-47
2022/06/27 01:40:25;;;;;;;;;;;;;;;;;;1050037;28;2631;-52
2022/06/27 01:40:55;;;;;;;;;;;;;;;;;;1048953;28;2923;-52
2022/06/27 01:41:26;;;;;;;;;;;;;;;;;;1048973;28;3262;-51
2022/06/27 01:41:58;;;;;;;;;;;;;;;;;;1049331;28;3307;-47
2022/06/27 01:42:28;;;;;;;;;;;;;;;;;;1049574;28;3755;-52
2022/06/27 01:42:58;;;;;;;;;;;;;;;;;;1049213;28;4038;-52
2022/06/27 01:43:29;;;;;;;;;;;;;;;;;;1050340;28;1608;-50
2022/06/27 01:43:59;;;;;;;;;;;;;;;;;;1049192;28;3071;-50
2022/06/27 01:44:30;;;;;;;;;;;;;;;;;;1050572;28;1253;-49
2022/06/27 01:45:01;;;;;;;;;;;;;;;;;;1050031;28;1725;-48
2022/06/27 01:45:32;;;;;;;;;;;;;;;;;;1048913;28;3486;-48
2022/06/27 01:46:03;;;;;;;;;;;;;;;;;;1049245;28;3209;-48
2022/06/27 01:46:43;;;;;;;;;;;;;;;;;;1049706;28;3372;-51
2022/06/27 01:47:14;;;;;;;;;;;;;;;;;;1048685;28;3585;-52
2022/06/27 01:47:44;;;;;;;;;;;;;;;;;;1048679;28;2926;-49
2022/06/27 01:48:14;;;;;;;;;;;;;;;;;;1050685;28;1914;-49
2022/06/27 01:48:44;;;;;;;;;;;;;;;;;;1049479;28;2705;-52
2022/06/27 01:49:16;;;;;;;;;;;;;;;;;;1050392;28;2857;-49
2022/06/27 01:49:46;;;;;;;;;;;;;;;;;;1050002;28;1677;-48
2022/06/27 01:50:19;;;;;;;;;;;;;;;;;;1045788;28;2552;-50
2022/06/27 01:50:49;;;;;;;;;;;;;;;;;;1046116;28;1871;-52
2022/06/27 01:51:20;;;;;;;;;;;;;;;;;;1049657;28;2731;-48
2022/06/27 01:51:51;;;;;;;;;;;;;;;;;;1046325;28;1844;-51
2022/06/27 01:52:21;;;;;;;;;;;;;;;;;;1049422;28;2312;-49
2022/06/27 01:52:52;;;;;;;;;;;;;;;;;;1048337;28;2846;-50
2022/06/27 01:53:23;;;;;;;;;;;;;;;;;;1049657;28;3704;-50
2022/06/27 01:53:53;;;;;;;;;;;;;;;;;;1052610;28;2535;-49
2022/06/27 01:54:25;;;;;;;;;;;;;;;;;;1049884;28;2742;-51
2022/06/27 01:54:55;;;;;;;;;;;;;;;;;;1049067;28;3664;-47
2022/06/27 01:55:26;;;;;;;;;;;;;;;;;;1048301;28;3456;-48
2022/06/27 01:55:56;;;;;;;;;;;;;;;;;;1050411;28;3952;-52
2022/06/27 01:56:26;;;;;;;;;;;;;;;;;;1049863;28;1943;-48
2022/06/27 01:56:57;;;;;;;;;;;;;;;;;;1050500;28;1554;-51
2022/06/27 01:57:28;;;;;;;;;;;;;;;;;;1044688;28;2827;-52
2022/06/27 01:57:58;;;;;;;;;;;;;;;;;;1045101;28;3868;-50
2022/06/27 01:58:29;;;;;;;;;;;;;;;;;;1050198;28;1929;-49
2022/06/27 01:58:59;;;;;;;;;;;;;;;;;;1049804;28;3319;-49
2022/06/27 01:59:30;;;;;;;;;;;;;;;;;;1047918;28;3838;-49
2022/06/27 02:00:00;;;;;;;;;;;;;;;;;;1049916;28;3299;-52
2022/06/27 02:00:31;;;;;;;;;;;;;;;;;;1048131;28;2857;-49
2022/06/27 02:01:03;;;;;;;;;;;;;;;;;;1050175;28;2699;-48
2022/06/27 02:01:34;;;;;;;;;;;;;;;;;;1046982;28;3858;-51
2022/06/27 02:02:05;;;;;;;;;;;;;;;;;;1050020;28;3887;-49
2022/06/27 02:02:35;;;;;;;;;;;;;;;;;;1043848;28;2787;-52
2022/06/27 02:03:05;;;;;;;;;;;;;;;;;;1042900;28;3862;-48
2022/06/27 02:03:36;;;;;;;;;;;;;;;;;;1040905;28;3362;-50
2022/06/27 02:04:06;;;;;;;;;;;;;;;;;;1044411;28;1770;-51
2022/06/27 02:04:37;;;;;;;;;;;;;;;;;;1048433;28;2836;-50
2022/06/27 02:05:08;;;;;;;;;;;;;;;;;;1050183;28;2170;-51
2022/06/27 02:05:38;;;;;;;;;;;;;;;;;;1049459;28;2869;-52
2022/06/27 02:06:15;;;;;;;;;;;;;;;;;;1048697;28;2471;-49
2022/06/27 02:06:45;;;;;;;;;;;;;;;;;;1049801;28;1754;-50
2022/06/27 02:07:16;;;;;;;;;;;;;;;;;;1048980;28;3414;-49
2022/06/27 02:07:46;;;;;;;;;;;;;;;;;;1050483;28;1572;-50
2022/06/27 02:08:19;;;;;;;;;;;;;;;;;;1049410;28;2273;-51
2022/06/27 02:08:51;;;;;;;;;;;;;;;;;;1050783;28;1283;-50
2022/06/27 02:09:22;;;;;;;;;;;;;;;;;;1049683;28;1735;-47
2022/06/27 02:09:52;;;;;;;;;;;;;;;;;;1049424;28;2712;-48
2022/06/27 02:10:22;;;;;;;;;;;;;;;;;;1045833;28;2003;-48
2022/06/27 02:10:52;;;;;;;;;;;;;;;;;;1046244;28;1422;-51
2022/06/27 02:11:24;;;;;;;;;;;;;;;;;;1048908;28;3791;-47
2022/06/27 02:11:55;;;;;;;;;;;;;;;;;;1045220;28;3845;-49
2022/06/27 02:12:28;;;;;;;;;;;;;;;;;;1048768;28;2413;-49
2022/06/27 02:12:59;;;;;;;;;;;;;;;;;;1049259;28;2845;-51
2022/06/27 02:13:35;;;;;;;;;;;;;;;;;;1048595;28;3918;-50
2022/06/27 02:14:13;;;;;;;;;;;;;;;;;;1044396;28;3797;-52
2022/06/27 02:14:43;;;;;;;;;;;;;;;;;;1047381;28;3070;-48
2022/06/27 02:15:14;;;;;;;;;;;;;;;;;;1049083;28;4385;-52
2022/06/27 02:16:14;;;;;;;;;;;;;;;;;;1050025;28;1715;-51
2022/06/27 02:16:45;;;;;;;;;;;;;;;;;;1031370;28;1897;-51
2022/06/27 02:17:16;;;;;;;;;;;;;;;;;;1045229;28;2744;-50
2022/06/27 02:17:46;;;;;;;;;;;;;;;;;;1043755;28;2771;-50
2022/06/27 02:18:16;;;;;;;;;;;;;;;;;;1046812;28;2623;-50
2022/06/27 02:18:47;;;;;;;;;;;;;;;;;;1044790;28;3182;-51
2022/06/27 02:19:19;;;;;;;;;;;;;;;;;;1046619;28;1567;-49
2022/06/27 02:19:49;;;;;;;;;;;;;;;;;;1044491;28;2779;-49
2022/06/27 02:20:19;;;;;;;;;;;;;;;;;;1045404;28;3127;-50
2022/06/27 02:20:50;;;;;;;;;;;;;;;;;;1044819;28;2873;-51
2022/06/27 02:21:22;;;;;;;;;;;;;;;;;;1046021;28;3511;-50
2022/06/27 02:21:52;;;;;;;;;;;;;;;;;;1046084;28;3941;-49
2022/06/27 02:22:22;;;;;;;;;;;;;;;;;;1046177;28;1977;-49
2022/06/27 02:22:53;;;;;;;;;;;;;;;;;;1046024;28;2274;-47
2022/06/27 02:23:23;;;;;;;;;;;;;;;;;;1046418;28;1652;-50
2022/06/27 02:23:54;;;;;;;;;;;;;;;;;;1045331;28;2757;-48
2022/06/27 02:24:24;;;;;;;;;;;;;;;;;;1045613;28;2105;-51
2022/06/27 02:24:54;;;;;;;;;;;;;;;;;;1044782;28;3860;-49
2022/06/27 02:25:25;;;;;;;;;;;;;;;;;;1046063;28;2594;-53
2022/06/27 02:25:56;;;;;;;;;;;;;;;;;;1043567;28;2847;-48
2022/06/27 02:26:28;;;;;;;;;;;;;;;;;;1045452;28;2621;-49
2022/06/27 02:26:59;;;;;;;;;;;;;;;;;;1044590;28;3900;-52
2022/06/27 02:27:30;;;;;;;;;;;;;;;;;;1045682;28;3296;-48
2022/06/27 02:28:00;;;;;;;;;;;;;;;;;;1044509;28;3776;-50
2022/06/27 02:28:31;;;;;;;;;;;;;;;;;;1044968;28;3699;-48
2022/06/27 02:29:02;;;;;;;;;;;;;;;;;;1045222;28;3791;-49
2022/06/27 02:29:32;;;;;;;;;;;;;;;;;;1045771;28;2541;-54
2022/06/27 02:30:03;;;;;;;;;;;;;;;;;;1045602;28;2656;-49
2022/06/27 02:30:34;;;;;;;;;;;;;;;;;;1043729;28;3080;-50
2022/06/27 02:31:05;;;;;;;;;;;;;;;;;;1045776;28;4032;-49
2022/06/27 02:31:46;;;;;;;;;;;;;;;;;;1045822;28;2456;-51
2022/06/27 02:32:16;;;;;;;;;;;;;;;;;;1045264;28;2846;-49
2022/06/27 02:32:47;;;;;;;;;;;;;;;;;;1045852;28;2622;-49
2022/06/27 02:33:17;;;;;;;;;;;;;;;;;;1045033;28;3213;-50
2022/06/27 02:33:49;;;;;;;;;;;;;;;;;;1044849;28;3058;-51
2022/06/27 02:34:19;;;;;;;;;;;;;;;;;;1049630;28;1592;-50
2022/06/27 02:34:50;;;;;;;;;;;;;;;;;;1048853;28;2614;-52
2022/06/27 02:35:20;;;;;;;;;;;;;;;;;;1048545;28;1990;-49
2022/06/27 02:35:52;;;;;;;;;;;;;;;;;;1049587;28;3698;-51
2022/06/27 02:36:29;;;;;;;;;;;;;;;;;;1045377;28;2202;-48
2022/06/27 02:37:00;;;;;;;;;;;;;;;;;;1045789;28;3318;-49
2022/06/27 02:37:30;;;;;;;;;;;;;;;;;;1045023;28;2210;-51
2022/06/27 02:38:02;;;;;;;;;;;;;;;;;;1046568;28;1689;-50
2022/06/27 02:38:32;;;;;;;;;;;;;;;;;;1042819;28;4635;-51
2022/06/27 02:39:03;;;;;;;;;;;;;;;;;;1045977;28;3549;-48
2022/06/27 02:39:35;;;;;;;;;;;;;;;;;;1043431;28;3036;-48
2022/06/27 02:40:06;;;;;;;;;;;;;;;;;;1045623;28;3127;-49
2022/06/27 02:40:38;;;;;;;;;;;;;;;;;;1044682;28;2892;-50
2022/06/27 02:41:18;;;;;;;;;;;;;;;;;;1046184;28;1901;-49
2022/06/27 02:41:50;;;;;;;;;;;;;;;;;;1044547;28;3206;-50
2022/06/27 02:42:22;;;;;;;;;;;;;;;;;;1045364;28;2686;-49
2022/06/27 02:42:54;;;;;;;;;;;;;;;;;;1044496;28;3689;-50
2022/06/27 02:43:26;;;;;;;;;;;;;;;;;;1046881;28;1781;-50
2022/06/27 02:44:00;;;;;;;;;;;;;;;;;;1045743;28;1963;-48
2022/06/27 02:44:31;;;;;;;;;;;;;;;;;;1045271;28;2983;-53
2022/06/27 02:45:01;;;;;;;;;;;;;;;;;;1044886;28;3788;-51
2022/06/27 02:45:33;;;;;;;;;;;;;;;;;;1043724;28;3785;-49
2022/06/27 02:46:03;;;;;;;;;;;;;;;;;;1045081;28;4025;-47
2022/06/27 02:46:34;;;;;;;;;;;;;;;;;;1043250;28;3969;-50
2022/06/27 02:47:04;;;;;;;;;;;;;;;;;;1045600;28;2395;-53
2022/06/27 02:47:36;;;;;;;;;;;;;;;;;;1040327;28;3165;-49
2022/06/27 02:48:07;;;;;;;;;;;;;;;;;;1045688;28;2566;-50
2022/06/27 02:48:39;;;;;;;;;;;;;;;;;;1045763;28;2633;-49
2022/06/27 02:49:10;;;;;;;;;;;;;;;;;;1045901;28;2786;-51
2022/06/27 02:49:41;;;;;;;;;;;;;;;;;;1045875;28;2863;-51
2022/06/27 02:50:11;;;;;;;;;;;;;;;;;;1046070;28;2751;-50
2022/06/27 02:50:43;;;;;;;;;;;;;;;;;;1049826;28;3242;-49
2022/06/27 02:51:14;;;;;;;;;;;;;;;;;;1050401;28;1731;-51
2022/06/27 02:51:47;;;;;;;;;;;;;;;;;;1048575;28;2895;-50
2022/06/27 02:52:26;;;;;;;;;;;;;;;;;;1049237;28;1689;-48
2022/06/27 02:52:59;;;;;;;;;;;;;;;;;;1045594;28;1929;-51
2022/06/27 02:53:34;;;;;;;;;;;;;;;;;;1046239;28;1870;-50
2022/06/27 02:54:07;;;;;;;;;;;;;;;;;;1045509;28;2900;-49
2022/06/27 02:54:42;;;;;;;;;;;;;;;;;;1046251;28;2083;-52
2022/06/27 02:55:13;;;;;;;;;;;;;;;;;;1044773;28;3139;-49
2022/06/27 02:55:45;;;;;;;;;;;;;;;;;;1045338;28;3533;-48
2022/06/27 02:56:17;;;;;;;;;;;;;;;;;;1040749;28;2830;-50
2022/06/27 02:57:00;;;;;;;;;;;;;;;;;;1036828;28;1817;-49
2022/06/27 02:57:43;;;;;;;;;;;;;;;;;;1034000;28;1600;-47
2022/06/27 02:58:23;;;;;;;;;;;;;;;;;;1039221;28;3336;-49
2022/06/27 02:59:02;;;;;;;;;;;;;;;;;;1041021;28;2742;-48
2022/06/27 02:59:38;;;;;;;;;;;;;;;;;;1042250;28;1652;-47
2022/06/27 03:00:08;;;;;;;;;;;;;;;;;;1036581;28;2466;-47
2022/06/27 03:00:39;;;;;;;;;;;;;;;;;;1039631;28;1930;-52
2022/06/27 03:01:11;;;;;;;;;;;;;;;;;;1041010;28;3719;-49
2022/06/27 03:01:42;;;;;;;;;;;;;;;;;;1041410;28;2272;-50
2022/06/27 03:02:13;;;;;;;;;;;;;;;;;;1044703;28;2852;-49
2022/06/27 03:02:44;;;;;;;;;;;;;;;;;;1045936;28;1957;-48
2022/06/27 03:03:15;;;;;;;;;;;;;;;;;;1044741;28;2116;-50
2022/06/27 03:03:47;;;;;;;;;;;;;;;;;;1045814;28;2758;-50
2022/06/27 03:04:17;;;;;;;;;;;;;;;;;;1045705;28;1819;-53
2022/06/27 03:04:48;;;;;;;;;;;;;;;;;;1045897;28;3735;-49
2022/06/27 03:05:18;;;;;;;;;;;;;;;;;;1048132;28;3782;-51
2022/06/27 03:05:55;;;;;;;;;;;;;;;;;;1044907;28;2695;-52
2022/06/27 03:06:32;;;;;;;;;;;;;;;;;;1046033;28;1491;-51
2022/06/27 03:07:02;;;;;;;;;;;;;;;;;;1045237;28;3363;-48
2022/06/27 03:07:39;;;;;;;;;;;;;;;;;;1046372;28;1402;-51
2022/06/27 03:08:10;;;;;;;;;;;;;;;;;;1043550;28;3089;-48
2022/06/27 03:08:41;;;;;;;;;;;;;;;;;;1045642;28;1715;-51
2022/06/27 03:09:12;;;;;;;;;;;;;;;;;;1044851;28;1903;-49
2022/06/27 03:09:42;;;;;;;;;;;;;;;;;;1046592;28;1682;-48
2022/06/27 03:10:13;;;;;;;;;;;;;;;;;;1045135;28;2327;-49
2022/06/27 03:10:43;;;;;;;;;;;;;;;;;;1046010;28;1722;-53
2022/06/27 03:11:17;;;;;;;;;;;;;;;;;;1040515;28;2142;-51
2022/06/27 03:11:48;;;;;;;;;;;;;;;;;;1042024;28;1799;-52
2022/06/27 03:12:18;;;;;;;;;;;;;;;;;;1041676;28;2082;-49
2022/06/27 03:12:48;;;;;;;;;;;;;;;;;;1046482;28;3735;-48
2022/06/27 03:13:25;;;;;;;;;;;;;;;;;;1045083;28;3016;-51
2022/06/27 03:14:03;;;;;;;;;;;;;;;;;;1046987;28;2699;-48
2022/06/27 03:14:40;;;;;;;;;;;;;;;;;;1048447;28;2250;-49
2022/06/27 03:15:10;;;;;;;;;;;;;;;;;;1048684;28;3255;-51
2022/06/27 03:15:40;;;;;;;;;;;;;;;;;;1050327;28;3892;-48
2022/06/27 03:16:11;;;;;;;;;;;;;;;;;;1052270;28;3037;-49
2022/06/27 03:16:41;;;;;;;;;;;;;;;;;;1051001;28;4160;-49
2022/06/27 03:17:12;;;;;;;;;;;;;;;;;;1053451;28;4162;-50
2022/06/27 03:17:42;;;;;;;;;;;;;;;;;;1049202;28;3002;-48
2022/06/27 03:18:13;;;;;;;;;;;;;;;;;;1050039;28;2680;-51
2022/06/27 03:18:44;;;;;;;;;;;;;;;;;;1049266;28;2768;-53
2022/06/27 03:19:14;;;;;;;;;;;;;;;;;;1047525;28;4230;-51
2022/06/27 03:19:44;;;;;;;;;;;;;;;;;;1051220;28;3749;-50
2022/06/27 03:20:15;;;;;;;;;;;;;;;;;;1054722;28;2954;-48
2022/06/27 03:20:45;;;;;;;;;;;;;;;;;;1047782;28;3283;-49
2022/06/27 03:21:17;;;;;;;;;;;;;;;;;;1046856;28;3313;-50
2022/06/27 03:21:48;;;;;;;;;;;;;;;;;;1045444;28;3858;-50
2022/06/27 03:22:18;;;;;;;;;;;;;;;;;;1046444;28;2813;-49
2022/06/27 03:22:48;;;;;;;;;;;;;;;;;;1045986;28;2394;-53
2022/06/27 03:23:19;;;;;;;;;;;;;;;;;;1045750;28;3287;-51
2022/06/27 03:23:49;;;;;;;;;;;;;;;;;;1045114;28;2790;-50
2022/06/27 03:24:20;;;;;;;;;;;;;;;;;;1049464;28;3241;-47
2022/06/27 03:24:50;;;;;;;;;;;;;;;;;;1045141;28;3993;-52
2022/06/27 03:25:20;;;;;;;;;;;;;;;;;;1050302;28;1647;-49
2022/06/27 03:25:51;;;;;;;;;;;;;;;;;;1047064;28;3243;-48
2022/06/27 03:26:21;;;;;;;;;;;;;;;;;;1048941;28;3746;-52
2022/06/27 03:26:51;;;;;;;;;;;;;;;;;;1049579;28;1743;-49
2022/06/27 03:27:22;;;;;;;;;;;;;;;;;;1048968;28;3298;-51
2022/06/27 03:27:52;;;;;;;;;;;;;;;;;;1048142;28;3475;-49
2022/06/27 03:28:23;;;;;;;;;;;;;;;;;;1049185;28;3494;-49
2022/06/27 03:28:53;;;;;;;;;;;;;;;;;;1044242;28;3526;-52
2022/06/27 03:29:23;;;;;;;;;;;;;;;;;;1049118;28;2953;-49
2022/06/27 03:29:54;;;;;;;;;;;;;;;;;;1049570;28;2566;-50
2022/06/27 03:30:24;;;;;;;;;;;;;;;;;;1048212;28;2817;-49
2022/06/27 03:30:54;;;;;;;;;;;;;;;;;;1049436;28;1797;-48
2022/06/27 03:31:25;;;;;;;;;;;;;;;;;;1041900;28;3815;-51
2022/06/27 03:31:55;;;;;;;;;;;;;;;;;;1043046;28;3696;-50
2022/06/27 03:32:25;;;;;;;;;;;;;;;;;;1043625;28;3351;-52
2022/06/27 03:32:56;;;;;;;;;;;;;;;;;;1049834;28;2699;-49
2022/06/27 03:33:33;;;;;;;;;;;;;;;;;;1050587;28;2834;-53
2022/06/27 03:34:03;;;;;;;;;;;;;;;;;;1045021;28;2082;-49
2022/06/27 03:34:34;;;;;;;;;;;;;;;;;;1039159;28;4003;-47
2022/06/27 03:35:05;;;;;;;;;;;;;;;;;;1036199;28;2784;-50
2022/06/27 03:35:36;;;;;;;;;;;;;;;;;;1034182;28;3799;-47
2022/06/27 03:36:06;;;;;;;;;;;;;;;;;;1043828;28;3727;-49
2022/06/27 03:36:38;;;;;;;;;;;;;;;;;;1047301;28;4151;-50
2022/06/27 03:37:08;;;;;;;;;;;;;;;;;;1053366;28;3651;-52
2022/06/27 03:37:38;;;;;;;;;;;;;;;;;;1054368;28;3818;-51